Time;durP1;ratioP1;P1;durP2;ratioP2;P2;SDS_P1;SDS_P2;PMS_P1;PMS_P2;Temp;Humidity;BMP_temperature;BMP_pressure;BME280_temperature;BME280_humidity;BME280_pressure;Samples;Min_cycle;Max_cycle;Signal;HPM_P1;HPM_P2
2022/02/23 00:00:10;;;;;;;22.20;9.00;;;;;-0.30;97505.40;;;;110610;1250;41142;-69
2022/02/23 00:03:00;;;;;;;18.60;8.70;;;;;-0.30;97516.20;;;;110525;1253;41151;-68
2022/02/23 00:05:29;;;;;;;17.40;7.90;;;;;-0.30;97510.80;;;;110529;1253;41464;-69
2022/02/23 00:08:00;;;;;;;17.60;7.90;;;;;-0.40;97511.00;;;;110569;1251;41278;-68
2022/02/23 00:10:30;;;;;;;15.40;7.00;;;;;-0.40;97513.00;;;;110492;1253;41166;-68
2022/02/23 00:13:00;;;;;;;15.80;6.70;;;;;-0.40;97502.60;;;;110529;1253;41633;-67
2022/02/23 00:15:30;;;;;;;16.60;8.20;;;;;-0.40;97510.20;;;;110507;1253;42534;-68
2022/02/23 00:18:00;;;;;;;16.60;8.20;;;;;-0.40;97515.80;;;;110477;1252;41761;-68
2022/02/23 00:20:29;;;;;;;16.30;7.60;;;;;-0.40;97515.20;;;;110723;1251;41243;-66
2022/02/23 00:22:59;;;;;;;15.70;8.10;;;;;-0.40;97514.60;;;;110519;1253;41277;-67
2022/02/23 00:25:31;;;;;;;13.80;7.30;;;;;-0.40;97510.20;;;;110538;1253;41145;-67
2022/02/23 00:28:01;;;;;;;14.70;6.90;;;;;-0.40;97509.20;;;;110590;1253;41159;-68
2022/02/23 00:30:32;;;;;;;14.90;6.50;;;;;-0.40;97507.00;;;;110604;1252;41266;-68
2022/02/23 00:33:03;;;;;;;12.90;6.10;;;;;-0.30;97506.40;;;;110372;1250;41139;-67
2022/02/23 00:35:32;;;;;;;15.20;6.50;;;;;-0.30;97504.40;;;;110406;1253;41356;-67
2022/02/23 00:38:02;;;;;;;13.00;6.50;;;;;-0.30;97504.40;;;;110570;1251;41176;-69
2022/02/23 00:40:31;;;;;;;17.40;7.10;;;;;-0.28;97513.80;;;;110505;1253;42230;-68
2022/02/23 00:43:01;;;;;;;16.00;7.90;;;;;-0.30;97514.60;;;;110585;1253;41268;-68
2022/02/23 00:45:31;;;;;;;18.70;8.50;;;;;-0.30;97518.80;;;;110695;1250;40735;-67
2022/02/23 00:48:01;;;;;;;15.60;6.80;;;;;-0.30;97516.00;;;;110549;1250;41160;-68
2022/02/23 00:50:31;;;;;;;17.00;7.70;;;;;-0.34;97519.40;;;;110315;1253;41443;-67
2022/02/23 00:53:01;;;;;;;15.70;7.30;;;;;-0.40;97522.60;;;;110369;1253;41950;-66
2022/02/23 00:55:31;;;;;;;17.20;6.90;;;;;-0.40;97535.20;;;;110475;1252;42096;-68
2022/02/23 00:58:01;;;;;;;18.10;7.90;;;;;-0.42;97550.00;;;;110645;1251;42053;-67
2022/02/23 01:00:31;;;;;;;14.60;6.90;;;;;-0.50;97543.20;;;;110472;1253;41264;-69
2022/02/23 01:03:02;;;;;;;20.30;8.20;;;;;-0.50;97540.20;;;;110459;1253;41225;-68
2022/02/23 01:05:32;;;;;;;16.60;7.70;;;;;-0.50;97537.60;;;;110378;1253;41207;-67
2022/02/23 01:08:03;;;;;;;17.50;8.60;;;;;-0.52;97538.60;;;;110502;1253;41491;-68
2022/02/23 01:10:33;;;;;;;19.60;8.80;;;;;-0.60;97534.60;;;;110546;1253;41159;-68
2022/02/23 01:13:04;;;;;;;16.80;7.80;;;;;-0.60;97535.60;;;;110484;1253;41616;-67
2022/02/23 01:15:38;;;;;;;14.70;7.30;;;;;-0.62;97542.20;;;;110538;1253;41273;-68
2022/02/23 01:18:08;;;;;;;17.40;8.00;;;;;-0.70;97537.80;;;;110369;1254;41294;-68
2022/02/23 01:20:38;;;;;;;16.40;7.00;;;;;-0.70;97535.40;;;;110353;1253;41854;-68
2022/02/23 01:23:08;;;;;;;18.00;7.30;;;;;-0.70;97532.80;;;;110551;1253;41266;-68
2022/02/23 01:25:38;;;;;;;18.90;6.90;;;;;-0.70;97530.00;;;;110613;1252;41138;-68
2022/02/23 01:28:09;;;;;;;15.70;6.70;;;;;-0.70;97535.00;;;;110690;1250;41253;-68
2022/02/23 01:30:39;;;;;;;15.40;7.60;;;;;-0.74;97535.60;;;;110472;1253;42205;-68
2022/02/23 01:33:09;;;;;;;18.40;8.10;;;;;-0.72;97533.00;;;;110723;1251;41180;-69
2022/02/23 01:35:41;;;;;;;17.20;8.60;;;;;-0.74;97531.80;;;;110582;1252;41197;-68
2022/02/23 01:38:11;;;;;;;19.50;9.90;;;;;-0.80;97530.60;;;;110537;1253;41168;-68
2022/02/23 01:40:42;;;;;;;18.30;8.00;;;;;-0.82;97535.00;;;;110578;1251;42726;-68
2022/02/23 01:43:12;;;;;;;19.90;9.10;;;;;-0.90;97528.40;;;;110346;1253;42073;-68
2022/02/23 01:45:42;;;;;;;17.30;8.20;;;;;-0.90;97530.20;;;;110535;1253;41683;-66
2022/02/23 01:48:12;;;;;;;16.20;7.80;;;;;-0.90;97531.80;;;;110631;1251;41255;-66
2022/02/23 01:50:43;;;;;;;16.80;6.80;;;;;-0.90;97531.20;;;;110438;1253;41164;-68
2022/02/23 01:53:14;;;;;;;16.10;7.10;;;;;-0.90;97528.20;;;;110454;1253;42433;-68
2022/02/23 01:55:45;;;;;;;15.70;6.60;;;;;-0.90;97530.60;;;;110555;1253;42007;-69
2022/02/23 01:58:15;;;;;;;17.30;7.40;;;;;-0.90;97529.40;;;;110636;1252;41590;-67
2022/02/23 02:00:45;;;;;;;15.40;7.50;;;;;-0.90;97528.40;;;;110394;1254;41194;-67
2022/02/23 02:03:16;;;;;;;14.50;6.90;;;;;-0.90;97535.60;;;;110507;1251;41153;-66
2022/02/23 02:05:46;;;;;;;15.70;7.10;;;;;-0.90;97542.60;;;;110528;1253;41263;-66
2022/02/23 02:08:17;;;;;;;19.70;7.50;;;;;-1.00;97535.20;;;;110571;1251;41148;-68
2022/02/23 02:10:47;;;;;;;18.90;7.60;;;;;-1.00;97537.80;;;;110569;1253;41584;-68
2022/02/23 02:13:19;;;;;;;20.80;8.90;;;;;-1.00;97542.80;;;;110539;1252;41273;-68
2022/02/23 02:15:49;;;;;;;21.00;9.90;;;;;-1.02;97550.40;;;;110319;1253;41256;-66
2022/02/23 02:18:19;;;;;;;21.20;9.80;;;;;-1.10;97550.20;;;;110497;1253;42138;-68
2022/02/23 02:20:50;;;;;;;20.20;9.90;;;;;-1.10;97552.00;;;;110692;1251;41157;-68
2022/02/23 02:23:20;;;;;;;20.30;8.90;;;;;-1.10;97551.40;;;;110462;1253;42364;-68
2022/02/23 02:25:50;;;;;;;20.20;9.00;;;;;-1.10;97556.20;;;;110630;1251;41145;-66
2022/02/23 02:28:20;;;;;;;19.40;9.50;;;;;-1.10;97555.40;;;;110674;1251;42420;-67
2022/02/23 02:30:51;;;;;;;20.40;9.30;;;;;-1.10;97559.20;;;;110585;1252;41257;-67
2022/02/23 02:33:22;;;;;;;17.80;8.90;;;;;-1.10;97560.40;;;;110580;1252;41480;-68
2022/02/23 02:35:52;;;;;;;21.30;9.80;;;;;-1.10;97568.00;;;;110539;1252;41203;-67
2022/02/23 02:38:22;;;;;;;23.30;10.30;;;;;-1.16;97568.20;;;;110500;1253;41247;-67
2022/02/23 02:40:52;;;;;;;19.80;9.50;;;;;-1.10;97574.40;;;;110450;1252;41266;-68
2022/02/23 02:43:22;;;;;;;;;;;;;-1.10;97580.00;;;;110272;1252;314101;-65
2022/02/23 02:45:53;;;;;;;20.50;10.10;;;;;-1.10;97582.60;;;;110424;1254;41293;-68
2022/02/23 02:48:24;;;;;;;20.30;9.50;;;;;-1.00;97587.00;;;;110615;1253;42179;-68
2022/02/23 02:50:55;;;;;;;21.00;9.30;;;;;-1.00;97596.60;;;;110660;1251;41971;-68
2022/02/23 02:53:26;;;;;;;23.60;10.30;;;;;-0.90;97597.20;;;;110410;1253;41658;-67
2022/02/23 02:55:57;;;;;;;19.60;9.60;;;;;-0.84;97603.20;;;;110399;1254;41160;-68
2022/02/23 02:58:29;;;;;;;21.80;10.20;;;;;-0.80;97607.40;;;;110336;1255;41158;-69
2022/02/23 03:01:00;;;;;;;25.00;12.10;;;;;-0.76;97617.40;;;;110575;1251;41146;-67
2022/02/23 03:03:31;;;;;;;24.30;10.40;;;;;-0.86;97623.60;;;;110445;1253;41147;-68
2022/02/23 03:06:03;;;;;;;22.90;9.30;;;;;-0.80;97628.80;;;;110713;1251;41795;-69
2022/02/23 03:08:33;;;;;;;22.60;10.00;;;;;-0.80;97623.00;;;;110500;1253;41486;-67
2022/02/23 03:11:03;;;;;;;19.30;9.10;;;;;-0.74;97623.40;;;;110576;1253;41715;-68
2022/02/23 03:13:33;;;;;;;18.70;9.60;;;;;-0.70;97623.60;;;;110424;1254;41615;-66
2022/02/23 03:16:04;;;;;;;20.60;9.30;;;;;-0.60;97633.60;;;;110572;1253;41269;-66
2022/02/23 03:18:34;;;;;;;19.00;9.20;;;;;-0.60;97636.60;;;;110627;1252;41136;-68
2022/02/23 03:21:05;;;;;;;22.60;9.70;;;;;-0.60;97637.40;;;;110488;1253;41267;-67
2022/02/23 03:23:37;;;;;;;20.90;9.50;;;;;-0.50;97637.00;;;;110531;1253;41154;-68
2022/02/23 03:26:12;;;;;;;23.00;10.30;;;;;-0.50;97635.20;;;;110279;1254;41156;-68
2022/02/23 03:28:42;;;;;;;22.30;9.90;;;;;-0.50;97641.40;;;;110654;1251;41132;-68
2022/02/23 03:31:13;;;;;;;19.00;10.00;;;;;-0.50;97653.20;;;;110497;1253;41798;-69
2022/02/23 03:33:45;;;;;;;18.20;8.30;;;;;-0.50;97649.80;;;;110524;1254;41250;-68
2022/02/23 03:36:16;;;;;;;20.30;9.30;;;;;-0.40;97654.20;;;;110534;1254;41279;-67
2022/02/23 03:38:46;;;;;;;21.10;10.40;;;;;-0.40;97648.20;;;;110496;1253;41133;-67
2022/02/23 03:41:17;;;;;;;20.00;9.60;;;;;-0.40;97638.00;;;;110536;1253;41254;-67
2022/02/23 03:43:47;;;;;;;21.20;10.80;;;;;-0.30;97643.20;;;;110546;1251;41587;-68
2022/02/23 03:46:18;;;;;;;20.40;10.80;;;;;-0.30;97639.60;;;;110788;1250;41605;-68
2022/02/23 03:48:52;;;;;;;19.90;9.80;;;;;-0.24;97638.40;;;;110692;1252;41258;-68
2022/02/23 03:51:23;;;;;;;21.40;10.00;;;;;-0.20;97638.20;;;;110522;1253;41728;-67
2022/02/23 03:53:53;;;;;;;16.90;9.10;;;;;-0.20;97639.80;;;;110583;1253;41613;-67
2022/02/23 03:56:39;;;;;;;21.60;9.40;;;;;-0.14;97647.00;;;;110552;1250;41269;-67
2022/02/23 03:59:11;;;;;;;21.30;9.70;;;;;-0.10;97639.80;;;;110771;1250;41162;-68
2022/02/23 04:01:46;;;;;;;23.40;10.20;;;;;-0.10;97634.00;;;;110545;1251;41731;-66
2022/02/23 04:04:16;;;;;;;21.10;9.60;;;;;0.00;97634.60;;;;110845;1250;41255;-66
2022/02/23 04:06:47;;;;;;;17.20;9.20;;;;;0.00;97631.60;;;;110468;1253;41575;-67
2022/02/23 04:09:17;;;;;;;18.70;9.30;;;;;0.10;97635.40;;;;110462;1253;42347;-68
2022/02/23 04:11:48;;;;;;;18.90;7.80;;;;;0.10;97631.00;;;;110554;1253;42181;-68
2022/02/23 04:14:18;;;;;;;;;;;;;0.12;97636.00;;;;110522;1252;41892;-68
2022/02/23 04:16:49;;;;;;;25.10;11.00;;;;;-0.10;97637.00;;;;110524;1250;41140;-68
2022/02/23 04:19:19;;;;;;;25.80;10.20;;;;;-0.06;97631.60;;;;110571;1252;41374;-68
2022/02/23 04:21:49;;;;;;;26.20;10.10;;;;;0.00;97616.80;;;;110623;1252;41187;-66
2022/02/23 04:24:19;;;;;;;22.10;9.30;;;;;0.00;97621.80;;;;110568;1250;41270;-68
2022/02/23 04:26:50;;;;;;;20.40;9.60;;;;;0.00;97626.40;;;;110549;1250;41152;-67
2022/02/23 04:29:19;;;;;;;22.40;10.90;;;;;0.00;97625.00;;;;110695;1252;41150;-67
2022/02/23 04:31:50;;;;;;;;;;;;;0.10;97622.40;;;;110545;1252;41433;-67
2022/02/23 04:34:20;;;;;;;20.20;9.50;;;;;0.10;97617.40;;;;110369;1254;41147;-67
2022/02/23 04:36:52;;;;;;;24.60;10.10;;;;;0.10;97619.40;;;;110529;1251;41165;-67
2022/02/23 04:39:28;;;;;;;22.20;10.20;;;;;0.10;97625.00;;;;110544;1253;41451;-67
2022/02/23 04:42:01;;;;;;;24.00;10.30;;;;;0.20;97626.00;;;;110540;1252;42097;-67
2022/02/23 04:44:31;;;;;;;17.40;8.60;;;;;0.20;97611.80;;;;110514;1251;41151;-68
2022/02/23 04:47:02;;;;;;;21.60;9.40;;;;;0.20;97620.80;;;;110710;1250;41170;-68
2022/02/23 04:49:31;;;;;;;23.20;9.50;;;;;0.30;97624.00;;;;110617;1250;41911;-66
2022/02/23 04:52:02;;;;;;;19.90;9.40;;;;;0.30;97619.00;;;;110797;1250;41518;-67
2022/02/23 04:54:34;;;;;;;21.80;9.40;;;;;0.30;97613.40;;;;110538;1253;41258;-67
2022/02/23 04:57:05;;;;;;;24.40;10.20;;;;;0.30;97613.60;;;;110544;1251;41395;-66
2022/02/23 04:59:35;;;;;;;24.00;12.20;;;;;0.40;97619.20;;;;110302;1252;41160;-69
2022/02/23 05:02:09;;;;;;;24.60;12.20;;;;;0.40;97622.00;;;;110477;1253;41133;-68
2022/02/23 05:04:40;;;;;;;25.40;11.10;;;;;0.42;97623.20;;;;110545;1253;41312;-68
2022/02/23 05:07:10;;;;;;;22.80;11.30;;;;;0.50;97623.80;;;;110519;1253;42383;-68
2022/02/23 05:09:41;;;;;;;25.50;10.70;;;;;0.50;97621.40;;;;110420;1253;41690;-67
2022/02/23 05:12:11;;;;;;;23.40;10.50;;;;;0.50;97627.60;;;;110519;1253;41265;-68
2022/02/23 05:14:40;;;;;;;23.40;11.50;;;;;0.50;97627.80;;;;110388;1254;42256;-68
2022/02/23 05:17:11;;;;;;;26.90;11.60;;;;;0.50;97627.40;;;;110664;1252;41172;-67
2022/02/23 05:19:41;;;;;;;26.80;13.30;;;;;0.50;97620.60;;;;110521;1253;41166;-67
2022/02/23 05:22:10;;;;;;;29.90;13.20;;;;;0.50;97612.60;;;;110476;1253;41158;-68
2022/02/23 05:24:40;;;;;;;33.20;15.10;;;;;0.50;97617.40;;;;110493;1250;41600;-67
2022/02/23 05:27:10;;;;;;;32.10;15.40;;;;;0.60;97618.80;;;;110552;1253;41265;-68
2022/02/23 05:29:40;;;;;;;30.50;14.60;;;;;0.60;97610.00;;;;110480;1252;42406;-67
2022/02/23 05:32:10;;;;;;;30.40;13.10;;;;;0.60;97609.40;;;;110335;1253;41170;-68
2022/02/23 05:34:40;;;;;;;25.90;11.60;;;;;0.62;97614.20;;;;110401;1252;41134;-69
2022/02/23 05:37:10;;;;;;;23.20;10.40;;;;;0.70;97622.00;;;;110356;1253;41345;-67
2022/02/23 05:39:40;;;;;;;23.80;10.80;;;;;0.74;97631.00;;;;110594;1253;41930;-67
2022/02/23 05:42:10;;;;;;;21.90;10.10;;;;;0.80;97633.80;;;;110570;1253;42556;-68
2022/02/23 05:44:39;;;;;;;18.00;8.70;;;;;0.80;97636.20;;;;110406;1253;41166;-67
2022/02/23 05:47:12;;;;;;;21.00;8.50;;;;;0.90;97641.60;;;;110703;1252;41146;-68
2022/02/23 05:49:41;;;;;;;20.20;8.90;;;;;0.90;97642.00;;;;110471;1253;41658;-67
2022/02/23 05:52:13;;;;;;;21.70;8.50;;;;;1.00;97640.60;;;;110568;1253;41188;-68
2022/02/23 05:54:43;;;;;;;20.90;9.40;;;;;1.10;97640.20;;;;110536;1253;41192;-67
2022/02/23 05:57:13;;;;;;;22.70;10.50;;;;;1.12;97643.40;;;;110506;1253;42413;-68
2022/02/23 05:59:46;;;;;;;22.80;11.00;;;;;1.20;97649.20;;;;110730;1250;42567;-67
2022/02/23 06:02:15;;;;;;;21.30;9.90;;;;;1.30;97645.00;;;;110693;1251;41261;-66
2022/02/23 06:04:45;;;;;;;21.30;9.90;;;;;1.34;97644.60;;;;110752;1250;41629;-68
2022/02/23 06:07:16;;;;;;;17.40;8.40;;;;;1.40;97642.80;;;;110607;1252;40750;-68
2022/02/23 06:09:47;;;;;;;21.70;9.30;;;;;1.50;97639.60;;;;110784;1250;42348;-68
2022/02/23 06:12:17;;;;;;;22.60;10.00;;;;;1.50;97631.20;;;;110455;1253;41620;-68
2022/02/23 06:14:46;;;;;;;21.10;10.10;;;;;1.60;97634.00;;;;110595;1252;41638;-68
2022/02/23 06:17:19;;;;;;;22.20;10.80;;;;;1.60;97631.60;;;;110696;1250;41591;-67
2022/02/23 06:19:50;;;;;;;27.20;11.90;;;;;1.70;97630.00;;;;110706;1252;41913;-67
2022/02/23 06:22:20;;;;;;;24.80;11.40;;;;;1.70;97636.20;;;;110587;1250;41159;-68
2022/02/23 06:24:50;;;;;;;24.30;10.70;;;;;1.80;97639.20;;;;110559;1253;41155;-68
2022/02/23 06:27:26;;;;;;;23.30;9.60;;;;;1.80;97644.20;;;;110541;1250;41146;-67
2022/02/23 06:29:56;;;;;;;19.90;9.90;;;;;1.80;97647.60;;;;110559;1253;42872;-67
2022/02/23 06:32:25;;;;;;;19.60;9.20;;;;;1.90;97650.00;;;;110578;1250;41161;-68
2022/02/23 06:34:55;;;;;;;26.00;10.80;;;;;2.00;97656.40;;;;110589;1252;41267;-67
2022/02/23 06:37:24;;;;;;;27.80;12.00;;;;;2.10;97662.20;;;;110664;1252;42001;-67
2022/02/23 06:39:54;;;;;;;29.30;13.60;;;;;2.20;97667.60;;;;110540;1253;41624;-66
2022/02/23 06:42:27;;;;;;;31.40;13.20;;;;;2.30;97674.20;;;;110517;1252;41581;-68
2022/02/23 06:44:57;;;;;;;24.50;11.70;;;;;2.40;97676.40;;;;110724;1251;41211;-67
2022/02/23 06:47:27;;;;;;;25.50;12.00;;;;;2.52;97676.20;;;;110800;1250;41133;-67
2022/02/23 06:49:56;;;;;;;23.50;10.60;;;;;2.70;97679.60;;;;110642;1252;41209;-67
2022/02/23 06:52:31;;;;;;;27.40;13.10;;;;;2.90;97679.00;;;;110740;1250;41984;-67
2022/02/23 06:55:02;;;;;;;28.30;13.10;;;;;3.00;97684.80;;;;110723;1250;42429;-67
2022/02/23 06:57:36;;;;;;;30.80;14.20;;;;;3.18;97688.00;;;;110632;1251;41186;-68
2022/02/23 07:00:07;;;;;;;31.50;14.30;;;;;3.26;97694.00;;;;110580;1253;41158;-68
2022/02/23 07:02:36;;;;;;;31.30;14.80;;;;;3.24;97696.00;;;;110572;1253;41159;-70
2022/02/23 07:05:09;;;;;;;25.90;12.70;;;;;3.20;97701.00;;;;110763;1250;41957;-68
2022/02/23 07:07:39;;;;;;;27.60;12.50;;;;;3.30;97701.80;;;;110684;1253;41139;-67
2022/02/23 07:10:11;;;;;;;27.10;12.30;;;;;3.44;97700.40;;;;110800;1250;41209;-67
2022/02/23 07:12:40;;;;;;;21.30;10.90;;;;;3.60;97698.80;;;;110579;1250;41151;-67
2022/02/23 07:15:10;;;;;;;23.60;11.20;;;;;3.76;97698.20;;;;110549;1253;41187;-66
2022/02/23 07:17:40;;;;;;;19.80;9.20;;;;;3.90;97707.20;;;;110506;1253;41268;-66
2022/02/23 07:20:10;;;;;;;21.30;10.10;;;;;4.10;97703.20;;;;110505;1250;41905;-65
2022/02/23 07:22:40;;;;;;;19.80;9.20;;;;;4.22;97705.60;;;;110523;1253;41261;-67
2022/02/23 07:25:12;;;;;;;18.80;9.40;;;;;4.40;97709.80;;;;110576;1253;41763;-67
2022/02/23 07:27:46;;;;;;;21.60;9.50;;;;;4.50;97711.00;;;;110734;1250;41142;-67
2022/02/23 07:30:17;;;;;;;22.00;9.40;;;;;4.70;97715.00;;;;110570;1253;41246;-68
2022/02/23 07:32:50;;;;;;;19.10;9.20;;;;;4.80;97715.40;;;;110561;1253;41179;-67
2022/02/23 07:35:19;;;;;;;23.50;10.00;;;;;4.90;97712.40;;;;110461;1252;41150;-67
2022/02/23 07:37:52;;;;;;;20.80;9.90;;;;;4.90;97716.20;;;;110543;1250;41265;-68
2022/02/23 07:40:23;;;;;;;20.50;10.00;;;;;4.98;97715.40;;;;110607;1253;41670;-67
2022/02/23 07:43:13;;;;;;;21.50;9.60;;;;;5.00;97711.20;;;;110520;1253;41595;-67
2022/02/23 07:45:43;;;;;;;21.10;9.10;;;;;5.00;97714.60;;;;110497;1253;41141;-67
2022/02/23 07:48:13;;;;;;;18.90;8.10;;;;;5.04;97718.80;;;;110645;1250;41777;-69
2022/02/23 07:50:43;;;;;;;;;;;;;5.00;97718.60;;;;110721;1252;41196;-68
2022/02/23 07:53:12;;;;;;;17.70;7.80;;;;;5.00;97713.00;;;;110565;1250;41194;-68
2022/02/23 07:55:44;;;;;;;19.40;8.10;;;;;5.00;97715.60;;;;110776;1250;41174;-67
2022/02/23 07:58:14;;;;;;;17.50;8.60;;;;;5.00;97708.40;;;;110498;1253;41130;-67
2022/02/23 08:00:45;;;;;;;17.10;7.00;;;;;5.10;97716.80;;;;110696;1252;41718;-67
2022/02/23 08:03:16;;;;;;;16.00;7.60;;;;;5.10;97720.60;;;;110743;1250;41136;-67
2022/02/23 08:05:48;;;;;;;16.40;7.30;;;;;5.20;97717.80;;;;110563;1253;42364;-67
2022/02/23 08:08:19;;;;;;;15.40;6.90;;;;;5.30;97718.20;;;;110869;1250;41752;-68
2022/02/23 08:10:48;;;;;;;15.00;6.60;;;;;5.40;97714.80;;;;110593;1253;41416;-68
2022/02/23 08:13:18;;;;;;;17.80;7.10;;;;;5.60;97718.00;;;;110741;1250;41254;-68
2022/02/23 08:21:24;;;;;;;13.90;6.30;;;;;6.10;97717.80;;;;110716;1250;42054;-68
2022/02/23 08:23:53;;;;;;;16.40;7.60;;;;;6.30;97713.00;;;;110743;1250;41335;-68
2022/02/23 08:26:25;;;;;;;15.70;6.80;;;;;6.50;97710.00;;;;110649;1253;41267;-68
2022/02/23 08:28:55;;;;;;;18.40;7.00;;;;;6.62;97704.00;;;;110628;1252;42549;-68
2022/02/23 08:31:24;;;;;;;16.40;7.50;;;;;6.80;97706.80;;;;110562;1253;41166;-68
2022/02/23 08:33:54;;;;;;;18.40;8.30;;;;;6.90;97701.40;;;;110692;1250;41503;-68
2022/02/23 08:36:23;;;;;;;20.80;8.80;;;;;7.00;97704.00;;;;110560;1250;41254;-67
2022/02/23 08:38:55;;;;;;;20.60;9.10;;;;;7.08;97702.40;;;;110687;1252;41146;-69
2022/02/23 08:41:25;;;;;;;17.10;7.50;;;;;7.20;97709.80;;;;110552;1253;41353;-66
2022/02/23 08:44:15;;;;;;;17.30;7.90;;;;;7.30;97704.60;;;;110756;1251;42162;-69
2022/02/23 08:46:44;;;;;;;19.40;7.80;;;;;7.30;97703.00;;;;110758;1250;41173;-68
2022/02/23 08:49:14;;;;;;;19.70;8.10;;;;;7.40;97704.20;;;;110573;1253;41156;-68
2022/02/23 08:51:46;;;;;;;18.40;8.50;;;;;7.50;97705.80;;;;110573;1253;41138;-68
2022/02/23 08:54:16;;;;;;;19.40;8.30;;;;;7.60;97708.80;;;;110752;1252;41614;-68
2022/02/23 08:56:46;;;;;;;18.90;9.10;;;;;7.80;97708.00;;;;110560;1253;41270;-68
2022/02/23 08:59:15;;;;;;;17.40;7.50;;;;;7.80;97704.20;;;;110517;1253;41365;-70
2022/02/23 09:01:45;;;;;;;16.60;7.40;;;;;8.00;97707.00;;;;110557;1253;41457;-69
2022/02/23 09:04:14;;;;;;;17.90;7.80;;;;;8.16;97703.20;;;;110547;1253;41639;-68
2022/02/23 09:06:43;;;;;;;18.90;8.20;;;;;8.30;97702.40;;;;110606;1253;42365;-69
2022/02/23 09:09:13;;;;;;;17.20;7.50;;;;;8.50;97704.80;;;;110541;1253;41521;-70
2022/02/23 09:11:47;;;;;;;19.60;7.30;;;;;8.50;97707.00;;;;110563;1253;41139;-70
2022/02/23 09:14:17;;;;;;;16.50;6.90;;;;;8.70;97700.00;;;;110709;1253;41610;-69
2022/02/23 09:16:46;;;;;;;16.70;7.00;;;;;8.90;97702.60;;;;110526;1253;41347;-68
2022/02/23 09:19:15;;;;;;;16.50;7.70;;;;;9.10;97706.00;;;;110692;1250;41515;-68
2022/02/23 09:21:44;;;;;;;14.10;6.50;;;;;9.34;97705.20;;;;110566;1253;41147;-69
2022/02/23 09:24:14;;;;;;;12.40;6.30;;;;;9.66;97697.00;;;;110508;1253;41357;-69
2022/02/23 09:26:43;;;;;;;17.00;5.80;;;;;10.10;97699.40;;;;110594;1253;41167;-69
2022/02/23 09:29:12;;;;;;;12.80;6.40;;;;;10.46;97699.40;;;;110599;1253;41161;-69
2022/02/23 09:31:42;;;;;;;13.80;6.10;;;;;10.80;97700.00;;;;110724;1250;41255;-68
2022/02/23 09:34:13;;;;;;;12.90;6.30;;;;;11.08;97697.40;;;;110727;1250;42214;-68
2022/02/23 09:36:42;;;;;;;16.10;7.00;;;;;11.30;97696.60;;;;110715;1250;41445;-68
2022/02/23 09:39:11;;;;;;;16.50;6.90;;;;;11.30;97692.80;;;;110767;1250;42317;-69
2022/02/23 09:41:41;;;;;;;20.20;8.30;;;;;11.14;97693.40;;;;110557;1253;41261;-69
2022/02/23 09:44:11;;;;;;;16.00;6.50;;;;;10.16;97692.40;;;;110550;1253;41156;-69
2022/02/23 09:46:40;;;;;;;14.40;6.30;;;;;10.80;97683.20;;;;110393;1253;41910;-68
2022/02/23 09:49:11;;;;;;;13.70;6.30;;;;;10.68;97694.80;;;;110528;1253;41677;-68
2022/02/23 09:51:40;;;;;;;13.90;6.40;;;;;10.66;97693.80;;;;110616;1253;42632;-70
2022/02/23 09:54:11;;;;;;;17.20;7.70;;;;;10.90;97696.20;;;;110496;1253;41262;-68
2022/02/23 09:56:40;;;;;;;15.20;6.50;;;;;10.26;97700.60;;;;110695;1251;41247;-68
2022/02/23 09:59:13;;;;;;;16.20;7.50;;;;;9.82;97703.40;;;;110761;1251;41713;-69
2022/02/23 10:01:42;;;;;;;15.40;6.80;;;;;9.70;97700.60;;;;110585;1250;41609;-68
2022/02/23 10:04:13;;;;;;;;;;;;;9.60;97695.40;;;;110734;1253;41783;-69
2022/02/23 10:06:43;;;;;;;17.90;6.50;;;;;8.72;97699.60;;;;110687;1253;41830;-69
2022/02/23 10:09:14;;;;;;;17.70;8.10;;;;;9.38;97697.80;;;;110748;1253;41945;-68
2022/02/23 10:11:46;;;;;;;19.40;9.80;;;;;9.50;97696.60;;;;110565;1251;41303;-69
2022/02/23 10:14:16;;;;;;;19.60;9.30;;;;;9.32;97703.00;;;;110781;1250;41255;-69
2022/02/23 10:16:47;;;;;;;21.20;9.90;;;;;9.14;97700.80;;;;110884;1251;41153;-68
2022/02/23 10:19:21;;;;;;;17.60;8.40;;;;;8.70;97703.40;;;;110670;1251;41264;-68
2022/02/23 10:22:01;;;;;;;19.90;9.30;;;;;9.28;97701.20;;;;110506;1253;41143;-69
2022/02/23 10:24:36;;;;;;;18.80;9.20;;;;;10.48;97696.80;;;;110602;1253;41678;-70
2022/02/23 10:27:11;;;;;;;19.10;9.40;;;;;10.82;97692.40;;;;110573;1251;41316;-68
2022/02/23 10:29:54;;;;;;;19.60;9.50;;;;;10.72;97693.40;;;;110589;1251;41141;-69
2022/02/23 10:32:25;;;;;;;13.10;6.50;;;;;11.14;97696.80;;;;110704;1252;41159;-69
2022/02/23 10:34:59;;;;;;;24.20;10.50;;;;;13.10;97673.80;;;;110687;1252;41159;-70
2022/02/23 10:37:31;;;;;;;16.80;8.70;;;;;15.46;97666.00;;;;110664;1250;41261;-69
2022/02/23 10:40:00;;;;;;;22.70;9.60;;;;;16.26;97672.80;;;;110882;1250;41297;-70
2022/02/23 10:42:33;;;;;;;15.30;6.90;;;;;15.86;97677.80;;;;110710;1253;41144;-70
2022/02/23 10:45:06;;;;;;;17.10;8.60;;;;;16.90;97681.40;;;;110894;1252;41137;-69
2022/02/23 10:47:39;;;;;;;20.30;9.20;;;;;15.90;97674.80;;;;110714;1253;41256;-70
2022/02/23 10:50:20;;;;;;;17.40;7.80;;;;;14.82;97688.20;;;;110713;1253;41155;-70
2022/02/23 10:52:58;;;;;;;16.10;7.80;;;;;15.92;97673.80;;;;110735;1253;41251;-69
2022/02/23 10:55:34;;;;;;;16.40;7.90;;;;;18.24;97642.60;;;;110708;1253;41260;-69
2022/02/23 10:58:06;;;;;;;15.50;7.30;;;;;20.88;97627.60;;;;110723;1253;41134;-69
2022/02/23 11:00:39;;;;;;;14.30;7.00;;;;;23.64;97642.20;;;;110650;1250;41162;-69
2022/02/23 11:03:08;;;;;;;16.50;7.10;;;;;24.00;97640.40;;;;110606;1253;41151;-69
2022/02/23 11:05:38;;;;;;;14.10;6.70;;;;;22.68;97637.20;;;;110891;1250;41163;-69
2022/02/23 11:08:11;;;;;;;14.60;7.80;;;;;20.22;97648.60;;;;110872;1251;41269;-70
2022/02/23 11:10:46;;;;;;;15.90;7.40;;;;;17.92;97652.40;;;;110875;1250;41131;-69
2022/02/23 11:13:17;;;;;;;12.70;5.80;;;;;14.96;97657.00;;;;110908;1250;41740;-70
2022/02/23 11:15:51;;;;;;;13.90;5.60;;;;;14.60;97656.40;;;;110883;1252;41909;-69
2022/02/23 11:18:23;;;;;;;12.20;5.70;;;;;13.30;97661.40;;;;110687;1253;42454;-70
2022/02/23 11:20:53;;;;;;;13.00;6.30;;;;;13.16;97665.80;;;;110601;1253;41189;-69
2022/02/23 11:23:22;;;;;;;13.00;6.10;;;;;13.32;97662.60;;;;110784;1251;41157;-69
2022/02/23 11:25:54;;;;;;;11.50;5.70;;;;;13.50;97657.60;;;;110742;1250;41133;-69
2022/02/23 11:28:35;;;;;;;13.10;5.50;;;;;12.96;97658.00;;;;110697;1253;42271;-69
2022/02/23 11:31:06;;;;;;;16.10;6.10;;;;;12.58;97659.20;;;;110823;1253;41871;-69
2022/02/23 11:33:50;;;;;;;16.30;7.60;;;;;12.54;97657.80;;;;110765;1251;41704;-70
2022/02/23 11:36:24;;;;;;;15.00;6.90;;;;;12.00;97666.00;;;;110757;1250;41781;-70
2022/02/23 11:38:59;;;;;;;15.70;7.60;;;;;11.80;97667.80;;;;110583;1253;41225;-69
2022/02/23 11:41:34;;;;;;;14.60;6.80;;;;;11.34;97675.40;;;;110688;1253;41161;-69
2022/02/23 11:44:15;;;;;;;17.90;8.00;;;;;11.18;97672.60;;;;110682;1250;41291;-70
2022/02/23 11:46:50;;;;;;;14.00;6.60;;;;;10.60;97671.80;;;;110802;1251;41162;-69
2022/02/23 11:49:26;;;;;;;15.40;6.40;;;;;10.60;97667.00;;;;110767;1252;41266;-70
2022/02/23 11:52:13;;;;;;;12.20;5.50;;;;;11.22;97666.80;;;;110826;1253;41616;-70
2022/02/23 11:54:58;;;;;;;14.40;5.90;;;;;11.60;97664.00;;;;110597;1253;41612;-69
2022/02/23 11:57:49;;;;;;;12.60;5.60;;;;;11.80;97658.80;;;;110723;1251;41417;-69
2022/02/23 12:00:20;;;;;;;13.20;5.20;;;;;11.80;97662.80;;;;110663;1253;41632;-69
2022/02/23 12:03:10;;;;;;;13.60;5.50;;;;;11.80;97656.00;;;;110559;1253;41307;-68
2022/02/23 12:06:09;;;;;;;12.60;5.50;;;;;11.28;97653.00;;;;110784;1251;41159;-69
2022/02/23 12:08:44;;;;;;;13.90;5.30;;;;;10.44;97653.40;;;;110868;1250;41532;-67
2022/02/23 12:11:16;;;;;;;10.50;4.30;;;;;10.06;97662.00;;;;110536;1250;41272;-69
2022/02/23 12:13:58;;;;;;;13.50;4.10;;;;;9.66;97649.80;;;;110597;1253;41505;-70
2022/02/23 12:16:30;;;;;;;8.90;3.50;;;;;9.70;97659.20;;;;110570;1250;41142;-69
2022/02/23 12:19:01;;;;;;;8.80;3.10;;;;;9.70;97662.40;;;;110674;1250;41263;-69
2022/02/23 12:22:07;;;;;;;10.70;3.10;;;;;9.60;97656.20;;;;110526;1253;41769;-68
2022/02/23 12:24:44;;;;;;;11.90;3.40;;;;;9.30;97660.40;;;;110816;1253;41162;-68
2022/02/23 12:27:20;;;;;;;8.40;3.20;;;;;9.20;97662.00;;;;110670;1253;41144;-70
2022/02/23 12:29:53;;;;;;;8.90;3.10;;;;;9.10;97658.20;;;;110766;1252;41265;-69